createdAt,value
2023-05-22T00:01:30.452Z,100.00
2023-05-22T00:03:57.522Z,100.00
2023-05-22T00:06:24.701Z,100.00
2023-05-22T00:08:51.757Z,100.00
2023-05-22T00:11:18.839Z,100.00
2023-05-22T00:13:46.533Z,100.00
2023-05-22T00:16:13.730Z,100.00
2023-05-22T00:18:44.698Z,100.00
2023-05-22T00:21:11.989Z,100.00
2023-05-22T00:23:39.158Z,100.00
2023-05-22T00:26:06.191Z,100.00
2023-05-22T00:28:33.414Z,100.00
2023-05-22T00:31:00.583Z,100.00
2023-05-22T00:33:27.732Z,100.00
2023-05-22T00:35:54.767Z,100.00
2023-05-22T00:38:34.421Z,100.00
2023-05-22T00:41:03.995Z,100.00
2023-05-22T00:43:31.597Z,100.00
2023-05-22T00:45:58.829Z,100.00
2023-05-22T00:48:26.244Z,100.00
2023-05-22T00:50:57.304Z,100.00
2023-05-22T00:53:26.323Z,100.00
2023-05-22T00:55:55.023Z,100.00
2023-05-22T00:58:26.350Z,100.00
2023-05-22T01:00:53.667Z,100.00
2023-05-22T01:03:26.722Z,100.00
2023-05-22T01:05:57.532Z,100.00
2023-05-22T01:08:24.630Z,100.00
2023-05-22T01:11:02.291Z,100.00
2023-05-22T01:13:43.285Z,100.00
2023-05-22T01:16:39.709Z,100.00
2023-05-22T01:19:38.122Z,100.00
2023-05-22T01:22:58.566Z,100.00
2023-05-22T01:26:05.614Z,100.00
2023-05-22T01:28:57.233Z,100.00
2023-05-22T01:31:29.931Z,100.00
2023-05-22T01:34:01.997Z,100.00
2023-05-22T01:36:36.473Z,100.00
2023-05-22T01:39:06.452Z,100.00
2023-05-22T01:41:34.434Z,100.00
2023-05-22T01:44:02.635Z,100.00
2023-05-22T01:46:31.067Z,100.00
2023-05-22T01:48:59.009Z,100.00
2023-05-22T01:52:06.018Z,100.00
2023-05-22T01:55:00.325Z,100.00
2023-05-22T01:58:08.398Z,100.00
2023-05-22T02:00:38.024Z,100.00
2023-05-22T02:03:13.887Z,100.00
2023-05-22T02:05:42.299Z,100.00
2023-05-22T02:08:10.677Z,100.00
2023-05-22T02:10:39.382Z,100.00
2023-05-22T02:13:07.146Z,100.00
2023-05-22T02:15:34.625Z,100.00
2023-05-22T02:18:02.175Z,100.00
2023-05-22T02:20:30.203Z,100.00
2023-05-22T02:22:57.283Z,100.00
2023-05-22T02:25:24.475Z,100.00
2023-05-22T02:27:51.533Z,100.00
2023-05-22T02:30:18.678Z,100.00
2023-05-22T02:32:45.972Z,100.00
2023-05-22T02:35:13.149Z,100.00
2023-05-22T02:37:40.262Z,100.00
2023-05-22T02:40:08.436Z,100.00
2023-05-22T02:42:35.903Z,100.00
2023-05-22T02:45:03.506Z,100.00
2023-05-22T02:47:30.764Z,100.00
2023-05-22T02:49:58.254Z,100.00
2023-05-22T02:52:25.451Z,100.00
2023-05-22T02:54:52.674Z,100.00
2023-05-22T02:57:19.778Z,100.00
2023-05-22T02:59:46.912Z,100.00
2023-05-22T03:02:15.469Z,100.00
2023-05-22T03:04:42.632Z,100.00
2023-05-22T03:07:10.081Z,100.00
2023-05-22T03:09:37.327Z,100.00
2023-05-22T03:12:05.269Z,100.00
2023-05-22T03:14:32.315Z,100.00
2023-05-22T03:16:59.668Z,100.00
2023-05-22T03:19:26.958Z,100.00
2023-05-22T03:21:54.270Z,100.00
2023-05-22T03:24:21.728Z,100.00
2023-05-22T03:26:48.767Z,100.00
2023-05-22T03:29:16.098Z,100.00
2023-05-22T03:31:43.401Z,100.00
2023-05-22T03:34:11.046Z,100.00
2023-05-22T03:36:38.471Z,100.00
2023-05-22T03:39:05.554Z,100.00
2023-05-22T03:41:32.635Z,100.00
2023-05-22T03:43:59.933Z,100.00
2023-05-22T03:46:27.141Z,100.00
2023-05-22T03:48:54.231Z,100.00
2023-05-22T03:51:22.790Z,100.00
2023-05-22T03:53:49.949Z,100.00
2023-05-22T03:56:17.305Z,100.00
2023-05-22T03:58:44.481Z,100.00
2023-05-22T04:01:14.024Z,100.00
2023-05-22T04:03:41.468Z,100.00
2023-05-22T04:06:08.654Z,100.00
2023-05-22T04:08:35.756Z,100.00
2023-05-22T04:11:03.203Z,100.00
2023-05-22T04:13:31.526Z,100.00
2023-05-22T04:15:58.809Z,100.00
2023-05-22T04:18:26.016Z,100.00
2023-05-22T04:20:53.177Z,100.00
2023-05-22T04:23:20.246Z,100.00
2023-05-22T04:25:48.400Z,100.00
2023-05-22T04:28:17.736Z,100.00
2023-05-22T04:30:45.068Z,100.00
2023-05-22T04:33:12.862Z,100.00
2023-05-22T04:35:44.335Z,100.00
2023-05-22T04:38:11.467Z,100.00
2023-05-22T04:40:38.974Z,100.00
2023-05-22T04:43:06.266Z,100.00
2023-05-22T04:45:33.490Z,100.00
2023-05-22T04:48:02.644Z,100.00
2023-05-22T04:50:33.048Z,100.00
2023-05-22T04:53:04.384Z,100.00
2023-05-22T04:55:34.646Z,100.00
2023-05-22T04:58:01.709Z,100.00
2023-05-22T05:00:29.048Z,100.00
2023-05-22T05:02:57.555Z,100.00
2023-05-22T05:05:24.899Z,100.00
2023-05-22T05:07:52.085Z,100.00
2023-05-22T05:10:19.359Z,100.00
2023-05-22T05:12:46.641Z,100.00
2023-05-22T05:15:14.088Z,100.00
2023-05-22T05:17:41.242Z,100.00
2023-05-22T05:20:09.219Z,100.00
2023-05-22T05:22:37.434Z,100.00
2023-05-22T05:25:05.585Z,100.00
2023-05-22T05:27:33.348Z,100.00
2023-05-22T05:30:00.722Z,100.00
2023-05-22T05:32:28.511Z,100.00
2023-05-22T05:34:56.498Z,100.00
2023-05-22T05:37:23.920Z,100.00
2023-05-22T05:39:50.982Z,100.00
2023-05-22T05:42:18.161Z,100.00
2023-05-22T05:44:45.670Z,100.00
2023-05-22T05:47:15.052Z,100.00
2023-05-22T05:49:42.113Z,100.00
2023-05-22T05:52:09.253Z,100.00
2023-05-22T05:54:36.286Z,100.00
2023-05-22T05:57:03.579Z,100.00
2023-05-22T05:59:32.186Z,100.00
2023-05-22T06:01:59.353Z,100.00
2023-05-22T06:04:28.233Z,100.00
2023-05-22T06:06:55.380Z,100.00
2023-05-22T06:09:22.624Z,100.00
2023-05-22T06:11:49.682Z,100.00
2023-05-22T06:14:16.788Z,100.00
2023-05-22T06:16:46.162Z,100.00
2023-05-22T06:19:13.282Z,100.00
2023-05-22T06:21:40.645Z,100.00
2023-05-22T06:24:08.102Z,100.00
2023-05-22T06:26:35.508Z,100.00
2023-05-22T06:29:02.606Z,100.00
2023-05-22T06:31:32.100Z,100.00
2023-05-22T06:33:59.332Z,100.00
2023-05-22T06:36:26.616Z,100.00
2023-05-22T06:38:54.745Z,100.00
2023-05-22T06:41:22.340Z,100.00
2023-05-22T06:43:49.360Z,100.00
2023-05-22T06:46:16.592Z,100.00
2023-05-22T06:48:44.263Z,100.00
2023-05-22T06:51:12.843Z,100.00
2023-05-22T06:53:39.910Z,100.00
2023-05-22T06:56:07.235Z,100.00
2023-05-22T06:58:34.284Z,100.00
2023-05-22T07:01:01.675Z,100.00
2023-05-22T07:03:28.998Z,100.00
2023-05-22T07:05:57.797Z,100.00
2023-05-22T07:08:27.760Z,100.00
2023-05-22T07:10:56.060Z,100.00
2023-05-22T07:13:23.558Z,100.00
2023-05-22T07:15:51.246Z,100.00
2023-05-22T07:18:19.156Z,100.00
2023-05-22T07:20:46.409Z,100.00
2023-05-22T07:23:13.573Z,100.00
2023-05-22T07:25:41.189Z,100.00
2023-05-22T07:28:09.435Z,100.00
2023-05-22T07:30:38.692Z,100.00
2023-05-22T07:33:06.388Z,100.00
2023-05-22T07:35:33.627Z,100.00
2023-05-22T07:38:00.856Z,100.00
2023-05-22T07:40:27.930Z,100.00
2023-05-22T07:42:55.109Z,100.00
2023-05-22T07:45:22.248Z,100.00
2023-05-22T07:47:49.337Z,100.00
2023-05-22T07:50:16.659Z,100.00
2023-05-22T07:52:44.717Z,100.00
2023-05-22T07:55:11.946Z,100.00
2023-05-22T07:57:39.549Z,100.00
2023-05-22T08:00:10.134Z,100.00
2023-05-22T08:02:37.271Z,100.00
2023-05-22T08:05:04.852Z,100.00
2023-05-22T08:07:33.024Z,100.00
2023-05-22T08:10:04.941Z,100.00
2023-05-22T08:12:32.077Z,100.00
2023-05-22T08:14:59.148Z,100.00
2023-05-22T08:17:26.580Z,100.00
2023-05-22T08:19:53.778Z,100.00
2023-05-22T08:22:21.352Z,100.00
2023-05-22T08:24:48.387Z,100.00
2023-05-22T08:27:15.573Z,100.00
2023-05-22T08:29:42.683Z,100.00
2023-05-22T08:32:09.773Z,100.00
2023-05-22T08:34:36.889Z,100.00
2023-05-22T08:37:05.325Z,100.00
2023-05-22T08:39:32.703Z,100.00
2023-05-22T08:42:00.055Z,100.00
2023-05-22T08:44:27.140Z,100.00
2023-05-22T08:46:56.684Z,100.00
2023-05-22T08:49:24.653Z,100.00
2023-05-22T08:52:00.660Z,100.00
2023-05-22T08:54:29.520Z,100.00
2023-05-22T08:56:57.671Z,100.00
2023-05-22T08:59:25.074Z,100.00
2023-05-22T09:01:53.916Z,100.00
2023-05-22T09:04:24.085Z,100.00
2023-05-22T09:06:53.955Z,100.00
2023-05-22T09:09:21.232Z,100.00
2023-05-22T09:11:49.104Z,100.00
2023-05-22T09:14:16.641Z,100.00
2023-05-22T09:16:49.392Z,100.00
2023-05-22T09:19:16.649Z,100.00
2023-05-22T09:21:44.998Z,100.00
2023-05-22T09:24:12.216Z,100.00
2023-05-22T09:26:40.626Z,100.00
2023-05-22T09:29:08.212Z,100.00
2023-05-22T09:31:43.415Z,100.00
2023-05-22T09:34:14.350Z,100.00
2023-05-22T09:36:42.535Z,100.00
2023-05-22T09:39:10.097Z,100.00
2023-05-22T09:41:39.858Z,100.00
2023-05-22T09:44:14.990Z,100.00
2023-05-22T09:46:45.953Z,100.00
2023-05-22T09:49:16.182Z,100.00
2023-05-22T09:51:49.163Z,100.00
2023-05-22T09:54:18.805Z,100.00
2023-05-22T09:56:52.483Z,100.00
2023-05-22T09:59:27.194Z,100.00
2023-05-22T10:01:54.740Z,100.00
2023-05-22T10:04:24.210Z,100.00
2023-05-22T10:06:54.339Z,100.00
2023-05-22T10:09:26.227Z,100.00
2023-05-22T10:11:57.505Z,100.00
2023-05-22T10:14:26.020Z,100.00
2023-05-22T10:16:54.510Z,100.00
2023-05-22T10:19:27.077Z,100.00
2023-05-22T10:21:58.161Z,100.00
2023-05-22T10:24:25.709Z,100.00
2023-05-22T10:26:54.622Z,100.00
2023-05-22T10:29:31.616Z,100.00
2023-05-22T10:32:14.942Z,100.00
2023-05-22T10:35:28.709Z,100.00
2023-05-22T10:38:14.550Z,100.00
2023-05-22T10:40:44.824Z,100.00
2023-05-22T10:43:12.295Z,100.00
2023-05-22T10:45:43.078Z,100.00
2023-05-22T10:48:12.691Z,100.00
2023-05-22T10:50:41.089Z,100.00
2023-05-22T10:53:31.438Z,100.00
2023-05-22T10:56:02.780Z,100.00
2023-05-22T10:58:38.323Z,100.00
2023-05-22T11:01:19.675Z,100.00
2023-05-22T11:04:01.142Z,100.00
2023-05-22T11:07:07.788Z,100.00
2023-05-22T11:09:47.855Z,100.00
2023-05-22T11:12:17.213Z,100.00
2023-05-22T11:14:59.836Z,100.00
2023-05-22T11:17:30.380Z,100.00
2023-05-22T11:20:15.507Z,100.00
2023-05-22T11:22:45.131Z,100.00
2023-05-22T11:25:18.178Z,100.00
2023-05-22T11:27:47.798Z,100.00
2023-05-22T11:30:16.766Z,100.00
2023-05-22T11:32:46.271Z,100.00
2023-05-22T11:35:22.276Z,100.00
2023-05-22T11:37:51.526Z,100.00
2023-05-22T11:40:27.133Z,100.00
2023-05-22T11:42:54.468Z,100.00
2023-05-22T11:45:22.000Z,100.00
2023-05-22T11:47:49.788Z,100.00
2023-05-22T11:50:25.940Z,100.00
2023-05-22T11:53:03.867Z,100.00
2023-05-22T11:55:33.243Z,100.00
2023-05-22T11:58:02.756Z,100.00
2023-05-22T12:00:31.801Z,100.00
2023-05-22T12:02:59.249Z,100.00
2023-05-22T12:05:26.581Z,100.00
2023-05-22T12:07:54.221Z,100.00
2023-05-22T12:10:21.669Z,100.00
2023-05-22T12:12:49.125Z,100.00
2023-05-22T12:15:20.701Z,100.00
2023-05-22T12:17:47.994Z,100.00
2023-05-22T12:20:15.236Z,99.43
2023-05-22T12:22:43.807Z,100.00
2023-05-22T12:25:20.662Z,100.00
2023-05-22T12:27:47.931Z,100.00
2023-05-22T12:30:16.280Z,100.00
2023-05-22T12:32:51.189Z,99.74
2023-05-22T12:35:20.867Z,97.83
2023-05-22T12:37:52.283Z,95.79
2023-05-22T12:40:19.910Z,95.03
2023-05-22T12:42:49.202Z,94.82
2023-05-22T12:45:18.204Z,94.70
2023-05-22T12:47:45.751Z,93.99
2023-05-22T12:50:12.930Z,93.77
2023-05-22T12:52:40.142Z,92.17
2023-05-22T12:55:08.219Z,92.08
2023-05-22T12:57:35.339Z,90.75
2023-05-22T13:00:02.736Z,89.69
2023-05-22T13:02:29.921Z,88.87
2023-05-22T13:04:57.045Z,85.41
2023-05-22T13:07:24.243Z,83.24
2023-05-22T13:09:51.667Z,82.16
2023-05-22T13:12:19.374Z,82.33
2023-05-22T13:14:46.638Z,81.83
2023-05-22T13:17:13.761Z,81.24
2023-05-22T13:19:40.787Z,81.56
2023-05-22T13:22:09.030Z,81.66
2023-05-22T13:24:36.212Z,81.39
2023-05-22T13:27:03.466Z,80.09
2023-05-22T13:29:30.700Z,79.84
2023-05-22T13:31:58.534Z,79.76
2023-05-22T13:34:25.667Z,80.11
2023-05-22T13:36:53.034Z,80.19
2023-05-22T13:39:20.274Z,80.24
2023-05-22T13:41:47.512Z,80.28
2023-05-22T13:44:14.830Z,79.95
2023-05-22T13:46:41.894Z,80.46
2023-05-22T13:49:09.168Z,80.31
2023-05-22T13:51:36.337Z,79.89
2023-05-22T13:54:04.079Z,79.33
2023-05-22T13:56:31.458Z,79.56
2023-05-22T13:58:58.526Z,79.69
2023-05-22T14:01:25.683Z,79.68
2023-05-22T14:03:55.477Z,80.05
2023-05-22T14:06:22.558Z,79.01
2023-05-22T14:08:49.646Z,78.59
2023-05-22T14:11:16.805Z,78.08
2023-05-22T14:13:43.963Z,78.31
2023-05-22T14:16:11.361Z,78.12
2023-05-22T14:18:38.463Z,78.33
2023-05-22T14:21:05.823Z,78.16
2023-05-22T14:23:32.977Z,77.71
2023-05-22T14:26:00.164Z,78.44
2023-05-22T14:28:27.278Z,78.62
2023-05-22T14:30:54.877Z,78.57
2023-05-22T14:33:21.982Z,79.10
2023-05-22T14:35:51.300Z,79.06
2023-05-22T14:38:18.553Z,79.05
2023-05-22T14:40:45.742Z,78.85
2023-05-22T14:43:12.901Z,79.21
2023-05-22T14:45:40.094Z,80.13
2023-05-22T14:48:10.982Z,79.37
2023-05-22T14:50:38.542Z,80.15
2023-05-22T14:53:05.655Z,80.26
2023-05-22T14:55:32.716Z,80.07
2023-05-22T14:57:59.935Z,80.54
2023-05-22T15:00:27.344Z,79.61
2023-05-22T15:02:54.839Z,79.22
2023-05-22T15:05:22.254Z,78.82
2023-05-22T15:07:51.375Z,77.20
2023-05-22T15:10:18.752Z,76.38
2023-05-22T15:12:45.927Z,75.35
2023-05-22T15:15:12.995Z,74.68
2023-05-22T15:17:42.639Z,73.66
2023-05-22T15:20:11.127Z,73.61
2023-05-22T15:22:38.182Z,73.09
2023-05-22T15:25:06.959Z,72.41
2023-05-22T15:27:35.530Z,72.17
2023-05-22T15:30:04.488Z,72.06
2023-05-22T15:32:35.762Z,71.87
2023-05-22T15:35:03.161Z,71.58
2023-05-22T15:37:32.549Z,72.36
2023-05-22T15:40:01.957Z,72.99
2023-05-22T15:42:29.762Z,74.38
2023-05-22T15:44:58.728Z,75.51
2023-05-22T15:47:26.146Z,76.89
2023-05-22T15:49:53.213Z,77.92
2023-05-22T15:52:22.587Z,78.51
2023-05-22T15:54:49.927Z,79.15
2023-05-22T15:57:17.348Z,79.84
2023-05-22T15:59:47.122Z,81.93
2023-05-22T16:02:14.426Z,83.58
2023-05-22T16:04:41.624Z,84.72
2023-05-22T16:07:08.736Z,86.08
2023-05-22T16:09:36.268Z,87.24
2023-05-22T16:12:04.460Z,87.76
2023-05-22T16:14:31.904Z,88.21
2023-05-22T16:16:59.155Z,88.81
2023-05-22T16:19:28.728Z,89.54
2023-05-22T16:21:56.412Z,90.58
2023-05-22T16:24:24.135Z,92.60
2023-05-22T16:26:51.282Z,94.55
2023-05-22T16:29:21.548Z,95.84
2023-05-22T16:31:48.849Z,96.81
2023-05-22T16:34:15.974Z,96.73
2023-05-22T16:36:43.279Z,97.83
2023-05-22T16:39:10.718Z,98.66
2023-05-22T16:41:38.110Z,98.70
2023-05-22T16:44:05.323Z,99.71
2023-05-22T16:46:33.140Z,100.00
2023-05-22T16:49:00.582Z,100.00
2023-05-22T16:51:27.747Z,100.00
2023-05-22T16:53:54.914Z,100.00
2023-05-22T16:56:22.804Z,100.00
2023-05-22T16:58:49.921Z,100.00
2023-05-22T17:01:17.184Z,100.00
2023-05-22T17:03:47.203Z,100.00
2023-05-22T17:06:14.687Z,100.00
2023-05-22T17:08:42.146Z,100.00
2023-05-22T17:11:09.363Z,100.00
2023-05-22T17:13:36.574Z,100.00
2023-05-22T17:16:03.790Z,100.00
2023-05-22T17:18:31.033Z,100.00
2023-05-22T17:20:58.331Z,100.00
2023-05-22T17:23:25.918Z,100.00
2023-05-22T17:25:53.091Z,100.00
2023-05-22T17:28:20.194Z,100.00
2023-05-22T17:30:48.320Z,100.00
2023-05-22T17:33:15.633Z,100.00
2023-05-22T17:35:42.762Z,100.00
2023-05-22T17:38:10.122Z,100.00
2023-05-22T17:40:44.969Z,100.00
2023-05-22T17:43:14.095Z,100.00
2023-05-22T17:45:41.734Z,100.00
2023-05-22T17:48:09.085Z,100.00
2023-05-22T17:50:36.268Z,100.00
2023-05-22T17:53:03.545Z,100.00
2023-05-22T17:55:30.634Z,100.00
2023-05-22T17:57:58.511Z,100.00
2023-05-22T18:00:25.866Z,100.00
2023-05-22T18:02:53.075Z,100.00
2023-05-22T18:05:20.579Z,100.00
2023-05-22T18:07:47.829Z,100.00
2023-05-22T18:10:15.042Z,100.00
2023-05-22T18:12:42.111Z,100.00
2023-05-22T18:15:12.079Z,100.00
2023-05-22T18:17:39.352Z,100.00
2023-05-22T18:20:08.488Z,100.00
2023-05-22T18:22:37.673Z,100.00
2023-05-22T18:25:06.965Z,100.00
2023-05-22T18:27:35.467Z,100.00
2023-05-22T18:30:03.706Z,100.00
2023-05-22T18:32:31.760Z,100.00
2023-05-22T18:34:59.992Z,100.00
2023-05-22T18:37:27.108Z,100.00
2023-05-22T18:39:54.187Z,100.00
2023-05-22T18:42:21.326Z,100.00
2023-05-22T18:44:49.608Z,100.00
2023-05-22T18:47:17.508Z,100.00
2023-05-22T18:49:45.018Z,100.00
2023-05-22T18:52:12.495Z,100.00
2023-05-22T18:54:39.763Z,100.00
2023-05-22T18:57:08.138Z,100.00
2023-05-22T18:59:35.545Z,100.00
2023-05-22T19:02:02.704Z,100.00
2023-05-22T19:04:29.787Z,100.00
2023-05-22T19:06:56.947Z,100.00
2023-05-22T19:09:24.842Z,100.00
2023-05-22T19:11:52.053Z,100.00
2023-05-22T19:14:19.145Z,100.00
2023-05-22T19:16:46.356Z,100.00
2023-05-22T19:19:14.825Z,100.00
2023-05-22T19:21:42.243Z,100.00
2023-05-22T19:24:09.473Z,100.00
2023-05-22T19:26:36.561Z,100.00
2023-05-22T19:29:03.630Z,100.00
2023-05-22T19:31:30.907Z,100.00
2023-05-22T19:33:58.152Z,100.00
2023-05-22T19:36:25.706Z,100.00
2023-05-22T19:38:53.805Z,100.00
2023-05-22T19:41:22.952Z,100.00
2023-05-22T19:43:51.805Z,100.00
2023-05-22T19:46:19.116Z,100.00
2023-05-22T19:48:46.322Z,100.00
2023-05-22T19:51:13.695Z,100.00
2023-05-22T19:53:42.608Z,100.00
2023-05-22T19:56:09.855Z,100.00
2023-05-22T19:58:36.922Z,100.00
2023-05-22T20:01:04.010Z,100.00
2023-05-22T20:03:31.553Z,100.00
2023-05-22T20:05:58.684Z,100.00
2023-05-22T20:08:26.497Z,100.00
2023-05-22T20:10:53.754Z,100.00
2023-05-22T20:13:21.014Z,100.00
2023-05-22T20:15:48.418Z,100.00
2023-05-22T20:18:15.593Z,100.00
2023-05-22T20:20:43.009Z,100.00
2023-05-22T20:23:10.093Z,100.00
2023-05-22T20:25:37.710Z,100.00
2023-05-22T20:28:05.099Z,100.00
2023-05-22T20:30:33.006Z,100.00
2023-05-22T20:33:00.513Z,100.00
2023-05-22T20:35:33.997Z,100.00
2023-05-22T20:38:04.725Z,100.00
2023-05-22T20:40:34.683Z,100.00
2023-05-22T20:43:04.501Z,100.00
2023-05-22T20:45:32.382Z,100.00
2023-05-22T20:47:59.731Z,100.00
2023-05-22T20:50:27.410Z,100.00
2023-05-22T20:52:54.560Z,100.00
2023-05-22T20:55:21.642Z,100.00
2023-05-22T20:57:48.712Z,100.00
2023-05-22T21:00:16.602Z,100.00
2023-05-22T21:02:43.852Z,100.00
2023-05-22T21:05:11.180Z,100.00
2023-05-22T21:07:38.324Z,100.00
2023-05-22T21:10:06.026Z,100.00
2023-05-22T21:12:33.031Z,100.00
2023-05-22T21:15:00.445Z,100.00
2023-05-22T21:17:27.966Z,100.00
2023-05-22T21:19:59.154Z,100.00
2023-05-22T21:22:26.776Z,100.00
2023-05-22T21:24:53.912Z,100.00
2023-05-22T21:27:21.020Z,100.00
2023-05-22T21:29:48.225Z,100.00
2023-05-22T21:32:15.368Z,100.00
2023-05-22T21:34:42.431Z,100.00
2023-05-22T21:37:09.961Z,100.00
2023-05-22T21:39:36.972Z,100.00
2023-05-22T21:42:04.320Z,100.00
2023-05-22T21:44:31.412Z,100.00
2023-05-22T21:46:58.399Z,100.00
2023-05-22T21:49:25.576Z,100.00
2023-05-22T21:51:52.806Z,100.00
2023-05-22T21:54:20.053Z,100.00
2023-05-22T21:56:47.178Z,100.00
2023-05-22T21:59:14.350Z,100.00
2023-05-22T22:01:41.698Z,100.00
2023-05-22T22:04:09.309Z,100.00
2023-05-22T22:06:37.053Z,100.00
2023-05-22T22:09:04.346Z,100.00
2023-05-22T22:11:31.537Z,100.00
2023-05-22T22:13:58.675Z,100.00
2023-05-22T22:16:26.126Z,100.00
2023-05-22T22:18:53.301Z,100.00
2023-05-22T22:21:20.563Z,100.00
2023-05-22T22:23:47.661Z,100.00
2023-05-22T22:26:14.817Z,100.00
2023-05-22T22:28:41.894Z,100.00
2023-05-22T22:31:08.956Z,100.00
2023-05-22T22:33:36.006Z,100.00
2023-05-22T22:36:03.446Z,100.00
2023-05-22T22:38:32.893Z,100.00
2023-05-22T22:41:01.195Z,100.00
2023-05-22T22:43:28.409Z,100.00
2023-05-22T22:45:55.962Z,100.00
2023-05-22T22:48:23.213Z,100.00
2023-05-22T22:50:50.366Z,100.00
2023-05-22T22:53:17.506Z,100.00
2023-05-22T22:55:47.363Z,100.00
2023-05-22T22:58:14.695Z,100.00
2023-05-22T23:00:42.005Z,100.00
2023-05-22T23:03:09.200Z,100.00
2023-05-22T23:05:36.559Z,100.00
2023-05-22T23:08:04.327Z,100.00
2023-05-22T23:10:31.498Z,100.00
2023-05-22T23:12:59.097Z,100.00
2023-05-22T23:15:26.255Z,100.00
2023-05-22T23:17:53.340Z,100.00
2023-05-22T23:20:20.480Z,100.00
2023-05-22T23:22:47.576Z,100.00
2023-05-22T23:25:14.615Z,100.00
2023-05-22T23:27:42.019Z,100.00
2023-05-22T23:30:09.532Z,100.00
2023-05-22T23:32:36.633Z,100.00
2023-05-22T23:35:05.722Z,100.00
2023-05-22T23:37:32.807Z,100.00
2023-05-22T23:39:59.997Z,100.00
2023-05-22T23:42:27.008Z,100.00
2023-05-22T23:44:54.058Z,100.00
2023-05-22T23:47:21.462Z,100.00
2023-05-22T23:49:48.545Z,100.00
2023-05-22T23:52:16.067Z,100.00
2023-05-22T23:54:43.172Z,100.00
2023-05-22T23:57:10.664Z,100.00
2023-05-22T23:59:38.096Z,100.00
